Time;durP1;ratioP1;P1;durP2;ratioP2;P2;SDS_P1;SDS_P2;PMS_P1;PMS_P2;Temp;Humidity;BMP_temperature;BMP_pressure;BME280_temperature;BME280_humidity;BME280_pressure;Samples;Min_cycle;Max_cycle;Signal;HPM_P1;HPM_P2
2023/12/03 00:03:15;;;;;;;8.27;3.83;;;0.60;99.90;;;-1.33;100.00;99487.72;10458846;27;96509;-91
2023/12/03 00:08:18;;;;;;;11.43;4.43;;;0.60;99.90;;;-1.35;100.00;99501.69;10458837;27;96580;-92
2023/12/03 00:13:22;;;;;;;7.37;3.97;;;0.60;99.90;;;-1.31;100.00;99523.19;10467858;27;96644;-92
2023/12/03 00:18:26;;;;;;;7.20;3.33;;;0.60;99.90;;;-1.29;100.00;99551.72;10473412;27;96561;-93
2023/12/03 00:23:30;;;;;;;7.17;3.93;;;0.60;99.90;;;-1.31;100.00;99577.09;10495046;27;97046;-91
2023/12/03 00:28:34;;;;;;;14.07;3.83;;;0.60;99.90;;;-1.31;100.00;99574.47;10449195;27;96517;-92
2023/12/03 00:33:38;;;;;;;7.53;4.03;;;0.70;99.90;;;-1.36;100.00;99588.66;10448569;27;96767;-93
2023/12/03 00:38:42;;;;;;;10.07;3.87;;;0.60;99.90;;;-1.36;100.00;99611.28;10499743;27;96498;-93
2023/12/03 00:43:45;;;;;;;8.53;2.97;;;0.60;99.90;;;-1.40;100.00;99628.91;10487627;27;96714;-90
2023/12/03 00:48:49;;;;;;;8.50;3.90;;;0.60;99.90;;;-1.35;100.00;99637.22;10455655;27;96500;-93
2023/12/03 00:53:53;;;;;;;9.57;3.67;;;0.70;99.90;;;-1.35;100.00;99647.66;10432934;27;96721;-91
2023/12/03 00:58:57;;;;;;;9.43;3.60;;;0.60;99.90;;;-1.33;100.00;99660.59;10484908;27;96593;-93
2023/12/03 01:04:01;;;;;;;7.20;3.43;;;0.60;99.90;;;-1.33;100.00;99668.41;10486415;27;96521;-91
2023/12/03 01:09:08;;;;;;;9.13;3.60;;;0.60;99.90;;;-1.34;100.00;99677.16;10491368;27;96533;-90
2023/12/03 01:14:12;;;;;;;6.43;3.10;;;0.60;99.90;;;-1.32;100.00;99688.31;10457473;27;96501;-90
2023/12/03 01:19:15;;;;;;;8.80;3.70;;;0.60;99.90;;;-1.35;100.00;99699.78;10486861;27;97721;-92
2023/12/03 01:24:19;;;;;;;7.70;3.30;;;0.60;99.90;;;-1.35;100.00;99710.22;10505383;27;96562;-94
2023/12/03 01:29:23;;;;;;;7.57;3.57;;;0.60;99.90;;;-1.38;100.00;99715.66;10497030;27;96376;-90
2023/12/03 01:34:27;;;;;;;10.67;4.10;;;0.60;99.90;;;-1.44;100.00;99721.28;10445972;27;96797;-93
2023/12/03 01:39:31;;;;;;;7.40;3.57;;;0.60;99.90;;;-1.47;100.00;99731.06;10454214;27;96644;-95
2023/12/03 01:44:35;;;;;;;9.63;3.17;;;0.60;99.90;;;-1.47;100.00;99733.69;10467513;27;97226;-95
2023/12/03 01:49:39;;;;;;;8.17;4.03;;;0.50;99.90;;;-1.48;100.00;99753.69;10457238;27;96496;-96
2023/12/03 01:54:44;;;;;;;7.53;3.57;;;0.50;99.90;;;-1.55;100.00;99749.00;10465089;27;96456;-95
2023/12/03 01:59:49;;;;;;;7.50;3.87;;;0.50;99.90;;;-1.53;100.00;99762.75;10446374;27;96528;-94
2023/12/03 02:04:52;;;;;;;8.53;3.87;;;0.50;99.90;;;-1.57;100.00;99788.16;10457377;27;97195;-93
2023/12/03 02:09:59;;;;;;;6.80;3.80;;;0.50;99.90;;;-1.60;100.00;99809.22;10462296;27;96515;-92
2023/12/03 02:15:03;;;;;;;7.70;3.97;;;0.50;99.90;;;-1.60;100.00;99824.84;10459906;27;96556;-95
2023/12/03 02:20:08;;;;;;;6.97;3.90;;;0.50;99.90;;;-1.64;100.00;99833.78;10482941;27;96519;-96
2023/12/03 02:25:11;;;;;;;6.30;3.27;;;0.40;99.90;;;-1.65;100.00;99847.75;10502799;27;96477;-94
2023/12/03 02:30:15;;;;;;;6.67;3.03;;;0.40;99.90;;;-1.70;100.00;99850.66;10471176;27;97133;-95
2023/12/03 02:35:18;;;;;;;6.97;3.93;;;0.40;99.90;;;-1.66;100.00;99866.94;10437569;27;96802;-94
2023/12/03 02:40:22;;;;;;;8.37;3.70;;;0.40;99.90;;;-1.69;100.00;99872.34;10476936;27;96607;-94
2023/12/03 02:45:26;;;;;;;7.77;3.43;;;0.40;99.90;;;-1.68;100.00;99894.84;10466267;27;96685;-94
2023/12/03 02:50:30;;;;;;;8.10;3.87;;;0.40;99.90;;;-1.72;100.00;99883.78;10450489;27;96914;-95
2023/12/03 02:55:33;;;;;;;5.77;3.20;;;0.40;99.90;;;-1.78;100.00;99881.59;10474338;27;96834;-94
2023/12/03 03:00:38;;;;;;;7.83;3.37;;;0.40;99.90;;;-1.82;100.00;99902.69;10458901;27;96513;-95
2023/12/03 03:05:42;;;;;;;5.93;3.20;;;0.30;99.90;;;-1.87;100.00;99934.25;10453607;27;96421;-92
2023/12/03 03:10:46;;;;;;;5.70;2.97;;;0.20;99.90;;;-1.88;100.00;99962.06;10488633;27;96685;-91
2023/12/03 03:15:50;;;;;;;6.67;3.27;;;0.20;99.90;;;-1.91;100.00;99951.00;10483160;27;96615;-93
2023/12/03 03:20:54;;;;;;;6.20;3.43;;;0.10;99.90;;;-1.95;100.00;99960.75;10461366;27;96488;-93
2023/12/03 03:25:57;;;;;;;6.83;3.17;;;0.10;99.90;;;-1.97;100.00;99990.44;10432707;27;96525;-92
2023/12/03 03:31:01;;;;;;;6.83;2.77;;;0.10;99.90;;;-1.98;100.00;99991.34;10481648;27;96725;-92
2023/12/03 03:36:05;;;;;;;8.97;3.20;;;0.00;99.90;;;-1.99;100.00;100005.31;10475942;27;97118;-92
2023/12/03 03:41:10;;;;;;;6.27;3.07;;;0.00;99.90;;;-2.05;100.00;100011.72;10446798;27;96737;-92
2023/12/03 03:46:13;;;;;;;6.23;2.93;;;0.00;99.90;;;-2.10;100.00;100024.16;10464983;27;96986;-93
2023/12/03 03:51:17;;;;;;;6.97;3.33;;;-0.10;99.90;;;-2.13;100.00;100039.16;10489034;27;96744;-93
2023/12/03 03:56:22;;;;;;;6.00;3.13;;;-0.10;99.90;;;-2.18;100.00;100055.03;10484667;27;96604;-93
2023/12/03 04:01:26;;;;;;;5.80;3.03;;;-0.20;99.90;;;-2.25;100.00;100061.53;10452987;27;96967;-93
2023/12/03 04:06:30;;;;;;;5.87;3.20;;;-0.20;99.90;;;-2.23;100.00;100072.69;10481404;27;96651;-95
2023/12/03 04:11:42;;;;;;;7.33;2.80;;;-0.30;99.90;;;-2.23;100.00;100085.72;10490067;27;96782;-95
2023/12/03 04:16:46;;;;;;;13.48;5.63;;;-0.30;99.90;;;-2.24;100.00;100084.88;10475982;27;96480;-94
2023/12/03 04:21:50;;;;;;;7.77;4.43;;;-0.30;99.90;;;-2.25;100.00;100087.56;10460207;27;96540;-94
2023/12/03 04:26:53;;;;;;;5.37;2.73;;;-0.30;99.90;;;-2.31;100.00;100093.13;10460377;27;96756;-96
2023/12/03 04:31:57;;;;;;;6.33;2.97;;;-0.30;99.90;;;-2.32;100.00;100104.47;10464154;27;98106;-95
2023/12/03 04:37:01;;;;;;;3.87;2.30;;;-0.30;99.90;;;-2.38;100.00;100105.66;10468653;27;96652;-95
2023/12/03 04:42:06;;;;;;;5.83;2.70;;;-0.30;99.90;;;-2.39;100.00;100113.56;10490251;27;96513;-96
2023/12/03 04:47:12;;;;;;;5.73;2.50;;;-0.40;99.90;;;-2.48;100.00;100110.53;10442480;27;96648;-94
2023/12/03 04:52:15;;;;;;;5.43;2.67;;;-0.40;99.90;;;-2.50;99.26;100107.19;10486133;27;96520;-95
2023/12/03 04:57:20;;;;;;;5.47;3.17;;;-0.50;99.90;;;-2.59;99.97;100115.50;10474911;27;97153;-95
2023/12/03 05:02:24;;;;;;;5.63;2.90;;;-0.50;99.90;;;-2.63;99.81;100126.19;10459252;27;96402;-96
2023/12/03 05:07:28;;;;;;;5.63;2.97;;;-0.60;99.90;;;-2.73;100.00;100120.66;10503679;27;97760;-96
2023/12/03 05:12:32;;;;;;;8.87;2.97;;;-0.70;99.90;;;-2.73;99.92;100138.88;10451685;27;96623;-96
2023/12/03 05:17:36;;;;;;;7.20;3.03;;;-0.70;99.90;;;-2.77;99.58;100142.56;10450482;27;96511;-94
2023/12/03 05:22:43;;;;;;;7.87;3.33;;;-0.80;99.90;;;-2.86;100.00;100148.28;10483923;27;96416;-94
2023/12/03 05:27:47;;;;;;;5.07;2.67;;;-0.80;99.90;;;-3.03;99.92;100144.81;10495099;27;96706;-94
2023/12/03 05:32:51;;;;;;;5.40;2.93;;;-0.90;99.90;;;-2.97;100.00;100169.66;10461848;27;96910;-95
2023/12/03 05:37:55;;;;;;;6.47;2.83;;;-0.90;99.90;;;-2.99;100.00;100169.75;10445956;27;97421;-95
2023/12/03 05:43:00;;;;;;;7.13;3.27;;;-1.00;99.90;;;-3.02;100.00;100176.84;10481545;27;96672;-94
2023/12/03 05:48:04;;;;;;;8.67;3.40;;;-0.90;99.90;;;-3.02;100.00;100182.91;10451837;27;96388;-96
2023/12/03 05:53:08;;;;;;;5.40;2.70;;;-1.00;99.90;;;-3.02;99.65;100190.69;10454300;27;96441;-94
2023/12/03 05:58:12;;;;;;;5.73;3.33;;;-1.00;99.90;;;-3.08;100.00;100206.63;10481736;27;96514;-94
2023/12/03 06:03:16;;;;;;;6.43;2.83;;;-1.00;99.90;;;-3.06;99.78;100214.31;10441394;27;96401;-95
2023/12/03 06:08:20;;;;;;;7.33;3.27;;;-1.00;99.90;;;-3.08;99.88;100219.63;10456527;27;96431;-95
2023/12/03 06:13:23;;;;;;;7.50;2.70;;;-1.00;99.90;;;-3.05;99.42;100234.22;10455480;27;96621;-96
2023/12/03 06:18:27;;;;;;;8.80;3.37;;;-1.00;99.90;;;-3.07;98.44;100242.09;10472047;27;96415;-95
2023/12/03 06:23:31;;;;;;;5.90;2.93;;;-1.00;99.90;;;-3.11;97.07;100243.19;10459425;27;96515;-95
2023/12/03 06:28:37;;;;;;;6.03;3.30;;;-1.00;99.90;;;-3.14;96.46;100245.09;10488922;27;96703;-93
2023/12/03 06:33:40;;;;;;;6.30;2.90;;;-1.10;99.90;;;-3.16;96.18;100252.16;10435598;27;97126;-94
2023/12/03 06:38:44;;;;;;;6.73;3.30;;;-1.10;99.90;;;-3.18;95.77;100264.34;10461247;27;96461;-94
2023/12/03 06:43:48;;;;;;;8.03;3.63;;;-1.10;99.90;;;-3.20;96.06;100272.25;10437668;27;96623;-96
2023/12/03 06:48:51;;;;;;;9.60;3.70;;;-1.10;99.90;;;-3.20;95.76;100269.66;10471361;27;96478;-93
2023/12/03 06:53:56;;;;;;;7.87;4.03;;;-1.10;99.90;;;-3.17;95.21;100287.69;10455000;27;96349;-95
2023/12/03 06:59:00;;;;;;;5.70;3.43;;;-1.10;99.90;;;-3.11;94.65;100289.97;10482998;27;97565;-95
2023/12/03 07:04:04;;;;;;;10.00;5.10;;;-1.10;99.90;;;-2.98;93.68;100295.38;10456785;27;96491;-96
2023/12/03 07:09:09;;;;;;;6.03;2.93;;;-1.00;99.90;;;-2.90;92.71;100288.00;10485267;27;96551;-95
2023/12/03 07:14:32;;;;;;;7.47;3.40;;;-0.90;99.90;;;-2.91;90.87;100306.31;10444445;27;96483;-93
2023/12/03 07:19:36;;;;;;;5.00;3.40;;;-0.90;99.90;;;-2.97;91.78;100317.84;10494491;27;96547;-92
2023/12/03 07:24:41;;;;;;;6.83;3.57;;;-0.90;99.90;;;-2.99;92.37;100330.09;10487568;27;97024;-93
2023/12/03 07:29:45;;;;;;;8.67;3.80;;;-0.90;99.90;;;-2.77;90.26;100329.81;10490860;27;96470;-93
2023/12/03 07:34:49;;;;;;;6.00;3.30;;;-0.80;99.90;;;-2.54;89.42;100331.22;10488326;27;96444;-95
2023/12/03 07:39:53;;;;;;;8.27;3.80;;;-0.70;99.90;;;-2.39;88.42;100337.38;10486985;27;96472;-96
2023/12/03 07:44:57;;;;;;;9.37;3.57;;;-0.60;99.90;;;-2.48;87.38;100357.75;10521805;27;96699;-96
2023/12/03 07:50:01;;;;;;;6.00;3.27;;;-0.60;99.90;;;-2.73;87.82;100372.97;10484330;27;96587;-96
2023/12/03 07:55:06;;;;;;;7.33;3.53;;;-0.70;99.90;;;-2.62;89.53;100377.63;10467891;27;96395;-95
2023/12/03 08:00:11;;;;;;;7.47;3.80;;;-0.70;99.90;;;-2.14;87.20;100392.41;10489446;27;96872;-96
2023/12/03 08:05:14;;;;;;;7.63;3.07;;;-0.50;99.90;;;-1.81;84.05;100384.50;10459558;27;96617;-87
2023/12/03 08:10:19;;;;;;;12.73;4.70;;;-0.20;99.90;;;-1.71;81.88;100380.47;10446985;27;96547;-87
2023/12/03 08:15:22;;;;;;;8.63;3.53;;;-0.10;99.90;;;-1.61;82.01;100391.25;10484335;27;96559;-87
2023/12/03 08:20:26;;;;;;;8.17;3.60;;;0.00;99.90;;;-1.55;81.85;100388.28;10499188;27;96434;-88
2023/12/03 08:25:30;;;;;;;6.37;3.50;;;0.00;99.90;;;-1.40;80.43;100405.66;10454720;27;98502;-88
2023/12/03 08:30:33;;;;;;;8.83;3.80;;;0.10;99.90;;;-1.37;80.42;100430.72;10467035;27;96707;-85
2023/12/03 08:35:38;;;;;;;6.93;3.43;;;0.30;99.90;;;-1.37;80.95;100415.09;10469399;27;96598;-87
2023/12/03 08:40:45;;;;;;;8.60;4.13;;;0.30;99.90;;;-1.39;79.68;100424.72;10499751;27;96618;-90
2023/12/03 08:45:49;;;;;;;5.50;3.10;;;0.40;99.90;;;-1.55;79.94;100422.16;10479384;27;97840;-85
2023/12/03 08:50:53;;;;;;;8.43;3.40;;;0.20;99.90;;;-1.84;81.91;100442.00;10403143;28;96682;-87
2023/12/03 08:55:59;;;;;;;8.13;3.60;;;0.10;99.90;;;-1.99;83.61;100438.44;10414104;28;96915;-87
2023/12/03 09:01:04;;;;;;;7.03;3.73;;;0.00;99.90;;;-2.00;84.19;100460.19;10389667;28;96524;-88
2023/12/03 09:06:08;;;;;;;6.67;3.20;;;0.00;99.90;;;-1.60;82.98;100467.66;10379798;28;96952;-88
2023/12/03 09:11:12;;;;;;;5.87;2.90;;;0.30;99.90;;;-1.25;80.77;100465.69;10396192;28;96699;-88
2023/12/03 09:16:16;;;;;;;5.77;2.67;;;0.70;99.90;;;-1.03;77.52;100454.88;10395364;28;96463;-90
2023/12/03 09:21:20;;;;;;;4.50;2.47;;;1.00;99.10;;;-0.92;75.30;100474.19;10383098;28;96655;-87
2023/12/03 09:26:24;;;;;;;7.87;3.43;;;1.20;98.00;;;-0.82;76.35;100474.53;10378869;28;97264;-86
2023/12/03 09:31:28;;;;;;;5.53;3.40;;;1.30;98.40;;;-0.78;76.05;100460.38;10395773;28;97988;-88
2023/12/03 09:36:32;;;;;;;4.40;2.43;;;1.30;98.20;;;-0.99;74.24;100478.09;10399472;28;96654;-87
2023/12/03 09:41:47;;;;;;;5.30;2.63;;;1.10;97.50;;;-1.23;76.49;100503.78;10402075;28;97803;-88
2023/12/03 09:46:54;;;;;;;5.50;2.10;;;0.80;98.80;;;-1.42;77.36;100530.03;10398936;28;96690;-83
2023/12/03 09:52:03;;;;;;;6.37;2.60;;;0.60;98.60;;;-1.50;79.65;100536.56;10410328;27;96490;-83
2023/12/03 09:57:08;;;;;;;7.03;3.53;;;0.50;98.70;;;-1.52;79.14;100531.44;10406131;28;96549;-84
2023/12/03 10:02:13;;;;;;;5.07;2.33;;;0.50;98.80;;;-1.54;79.26;100533.31;10402357;28;96667;-85
2023/12/03 10:07:19;;;;;;;4.07;2.20;;;0.50;99.40;;;-1.49;78.34;100525.25;10400929;28;96489;-85
2023/12/03 10:12:44;;;;;;;4.93;2.50;;;0.50;98.70;;;-1.49;78.88;100515.66;10393848;28;96950;-82
2023/12/03 10:17:50;;;;;;;7.97;2.97;;;0.50;99.00;;;-1.51;77.67;100527.91;10403022;28;96548;-82
2023/12/03 10:22:57;;;;;;;6.80;3.47;;;0.50;98.50;;;-1.50;78.52;100555.69;10418570;28;96404;-81
2023/12/03 10:28:08;;;;;;;6.67;3.30;;;0.50;99.20;;;-1.52;78.33;100510.59;10397507;28;98151;-81
2023/12/03 10:33:15;;;;;;;4.97;2.67;;;0.50;98.70;;;-1.49;79.42;100531.28;10403221;28;96854;-83
2023/12/03 10:38:19;;;;;;;4.70;2.40;;;0.50;99.40;;;-1.35;78.79;100535.75;10407786;27;96649;-80
2023/12/03 10:43:23;;;;;;;9.43;5.03;;;0.70;99.30;;;-0.92;76.64;100542.03;10384760;28;96601;-82
2023/12/03 10:48:30;;;;;;;4.17;2.20;;;1.10;98.70;;;-0.86;75.91;100552.13;10422350;27;96597;-86
2023/12/03 10:53:36;;;;;;;5.47;2.37;;;1.20;98.20;;;-0.79;76.06;100551.78;10472530;27;98791;-87
2023/12/03 10:58:41;;;;;;;6.83;3.13;;;1.20;98.80;;;-0.84;75.69;100539.84;10478501;27;98937;-87
2023/12/03 11:03:57;;;;;;;5.87;2.93;;;1.20;98.40;;;-0.94;75.87;100564.75;10467242;27;96563;-87
2023/12/03 11:09:02;;;;;;;6.93;3.27;;;1.10;98.20;;;-1.11;77.53;100555.25;10489984;27;96754;-87
2023/12/03 11:14:08;;;;;;;6.47;3.27;;;1.00;99.10;;;-1.16;78.15;100553.81;10472058;27;96583;-84
2023/12/03 11:19:19;;;;;;;12.57;5.90;;;0.90;99.30;;;-1.17;78.83;100553.00;10480441;27;96862;-84
2023/12/03 11:24:48;;;;;;;5.87;3.40;;;0.80;99.60;;;-1.25;78.38;100555.19;10469239;27;96780;-84
2023/12/03 11:29:55;;;;;;;6.10;2.80;;;0.80;99.40;;;-1.32;79.41;100555.59;10482646;27;96947;-84
2023/12/03 11:35:08;;;;;;;7.00;2.47;;;0.70;99.60;;;-1.25;79.71;100581.25;10431614;27;96697;-84
2023/12/03 11:40:16;;;;;;;6.17;2.63;;;0.70;99.90;;;-1.15;79.68;100578.97;10479338;27;96552;-90
2023/12/03 11:45:26;;;;;;;;;;;0.80;99.60;;;-0.97;80.58;100596.22;10456689;27;96461;-87
2023/12/03 11:50:42;;;;;;;5.43;2.23;;;0.90;99.90;;;-0.91;78.62;100588.06;10470774;27;96953;-86
2023/12/03 11:55:49;;;;;;;7.17;3.00;;;1.00;99.40;;;-0.81;78.17;100594.44;10492628;27;96485;-86
2023/12/03 12:00:57;;;;;;;5.50;2.77;;;1.10;99.60;;;-0.68;77.71;100604.22;10443404;27;96840;-85
2023/12/03 12:06:04;;;;;;;12.93;5.57;;;1.20;99.40;;;-0.62;78.62;100614.28;10472410;27;96470;-85
2023/12/03 12:11:08;;;;;;;18.87;6.90;;;1.30;99.90;;;-0.57;77.63;100627.94;10460896;27;96678;-85
2023/12/03 12:16:12;;;;;;;5.47;2.43;;;1.40;99.80;;;-0.64;76.43;100619.63;10480418;27;96625;-86
2023/12/03 12:21:21;;;;;;;6.27;3.70;;;1.40;99.80;;;-0.74;76.63;100620.22;10460733;27;96613;-85
2023/12/03 12:26:28;;;;;;;11.63;5.77;;;1.20;99.60;;;-0.92;77.43;100635.94;10481983;27;96512;-85
2023/12/03 12:31:33;;;;;;;6.60;2.73;;;1.10;99.90;;;-1.08;77.86;100638.56;10448114;27;97186;-86
2023/12/03 12:36:44;;;;;;;6.93;3.60;;;0.90;99.90;;;-1.16;78.85;100624.25;10468991;27;97262;-85
2023/12/03 12:41:51;;;;;;;7.27;3.40;;;0.90;99.60;;;-1.25;79.56;100638.63;10469723;27;96938;-85
2023/12/03 12:46:59;;;;;;;11.53;5.03;;;0.80;99.90;;;-1.33;80.78;100642.56;10471600;27;96468;-85
2023/12/03 12:52:14;;;;;;;6.63;2.77;;;0.70;99.90;;;-1.43;81.73;100655.25;10499317;27;96538;-86
2023/12/03 12:57:24;;;;;;;5.50;3.03;;;0.70;99.90;;;-1.51;80.92;100657.41;10501370;27;96892;-86
2023/12/03 13:02:34;;;;;;;6.77;3.43;;;0.60;99.60;;;-1.59;82.55;100654.34;10454610;27;96579;-85
2023/12/03 13:07:37;;;;;;;7.53;2.60;;;0.50;99.90;;;-1.62;82.19;100661.41;10458531;27;97405;-85
2023/12/03 13:12:43;;;;;;;3.60;2.10;;;0.50;99.90;;;-1.67;82.17;100678.22;10494786;27;96456;-85
2023/12/03 13:17:59;;;;;;;4.97;2.77;;;0.50;99.90;;;-1.70;82.40;100675.75;10452392;27;98203;-85
2023/12/03 13:23:18;;;;;;;7.00;3.03;;;0.50;99.90;;;-1.73;82.52;100679.38;10466708;27;96562;-86
2023/12/03 13:28:26;;;;;;;3.97;2.10;;;0.50;99.90;;;-1.75;82.16;100689.00;10502797;27;97311;-86
2023/12/03 13:33:30;;;;;;;6.50;2.83;;;0.40;99.90;;;-1.74;82.71;100677.69;10484613;27;96417;-86
2023/12/03 13:38:38;;;;;;;6.37;2.77;;;0.40;99.90;;;-1.71;82.65;100676.66;10466023;27;96496;-85
2023/12/03 13:43:46;;;;;;;7.07;2.80;;;0.40;99.90;;;-1.75;82.51;100673.38;10478374;27;96847;-85
2023/12/03 13:49:01;;;;;;;5.60;2.80;;;0.40;99.90;;;-1.74;82.75;100679.41;10477086;27;96528;-85
2023/12/03 13:54:06;;;;;;;5.73;2.63;;;0.40;99.90;;;-1.82;81.48;100682.41;10458021;27;98427;-85
2023/12/03 13:59:10;;;;;;;6.20;2.93;;;0.40;99.90;;;-1.89;82.55;100694.91;10467384;27;96634;-85
2023/12/03 14:04:14;;;;;;;7.00;3.10;;;0.30;99.90;;;-1.98;82.14;100697.13;10476979;27;96804;-86
2023/12/03 14:09:18;;;;;;;4.83;2.77;;;0.20;99.90;;;-2.09;82.84;100702.88;10490675;27;96774;-86
2023/12/03 14:14:23;;;;;;;4.90;2.50;;;0.20;99.90;;;-2.18;83.86;100713.72;10453081;27;96596;-87
2023/12/03 14:19:27;;;;;;;5.13;2.73;;;0.00;99.90;;;-2.29;82.77;100706.44;10496871;27;96444;-86
2023/12/03 14:24:31;;;;;;;4.43;2.03;;;-0.10;99.90;;;-2.32;84.15;100719.59;10457451;27;98117;-87
2023/12/03 14:29:35;;;;;;;6.13;3.00;;;-0.20;99.90;;;-2.34;84.00;100723.19;10471682;27;97555;-86
2023/12/03 14:34:43;;;;;;;4.37;2.50;;;-0.20;99.90;;;-2.40;85.12;100733.88;10499456;27;97671;-86
2023/12/03 14:39:50;;;;;;;5.17;3.10;;;-0.30;99.90;;;-2.45;85.97;100747.13;10481971;27;96574;-86
2023/12/03 14:44:55;;;;;;;5.60;3.07;;;-0.40;99.90;;;-2.52;86.15;100757.00;10483752;27;96658;-85
2023/12/03 14:50:01;;;;;;;5.63;2.43;;;-0.40;99.90;;;-2.52;85.86;100771.72;10452160;27;96624;-88
2023/12/03 14:55:09;;;;;;;6.37;2.93;;;-0.40;99.90;;;-2.56;86.13;100768.44;10466701;27;96598;-86
2023/12/03 15:00:16;;;;;;;8.87;3.97;;;-0.40;99.90;;;-2.59;86.26;100775.53;10456597;27;96552;-85
2023/12/03 15:05:22;;;;;;;5.67;3.10;;;-0.50;99.90;;;-2.65;87.14;100775.81;10434973;27;97900;-85
2023/12/03 15:10:27;;;;;;;7.03;3.20;;;-0.50;99.90;;;-2.69;87.70;100798.53;10455932;27;96645;-84
2023/12/03 15:15:30;;;;;;;3.33;2.03;;;-0.60;99.90;;;-2.74;88.62;100797.91;10461730;27;97870;-85
2023/12/03 15:20:34;;;;;;;8.20;3.17;;;-0.60;99.90;;;-2.78;89.66;100815.38;10473252;27;96556;-85
2023/12/03 15:25:40;;;;;;;4.77;2.50;;;-0.60;99.90;;;-2.79;nan;100823.28;10481464;27;96560;-86
2023/12/03 15:30:47;;;;;;;17.63;6.73;;;-0.70;99.90;;;-2.78;91.35;100835.34;10483957;27;96430;-85
2023/12/03 15:35:52;;;;;;;17.00;7.40;;;-0.60;99.90;;;-2.81;91.63;100822.50;10468676;27;98197;-85
2023/12/03 15:40:59;;;;;;;9.93;4.70;;;-0.60;99.90;;;-2.83;91.24;100816.50;10505758;27;98024;-83
2023/12/03 15:46:02;;;;;;;10.30;4.80;;;-0.70;99.90;;;-2.82;91.43;100821.66;10505979;27;96532;-83
2023/12/03 15:51:08;;;;;;;14.70;5.70;;;-0.60;99.90;;;-2.84;90.99;100833.03;10390850;28;96909;-83
2023/12/03 15:56:15;;;;;;;6.87;3.13;;;-0.70;99.90;;;-2.86;90.76;100840.06;10397878;28;96576;-85
2023/12/03 16:01:19;;;;;;;8.23;4.03;;;-0.70;99.90;;;-2.90;90.98;100841.94;10392302;28;96446;-84
2023/12/03 16:06:23;;;;;;;8.87;4.13;;;-0.80;99.90;;;-2.90;91.35;100841.09;10403166;28;96724;-84
2023/12/03 16:11:28;;;;;;;7.63;3.57;;;-0.70;99.90;;;-2.86;90.17;100853.06;10389056;28;96403;-83
2023/12/03 16:16:32;;;;;;;7.50;3.50;;;-0.70;99.90;;;-2.88;89.41;100852.25;10407613;28;96551;-83
2023/12/03 16:21:35;;;;;;;6.60;3.57;;;-0.70;99.90;;;-2.86;89.51;100861.72;10397558;28;97600;-84
2023/12/03 16:26:40;;;;;;;8.13;3.30;;;-0.70;99.90;;;-2.83;90.38;100884.13;10394285;28;98279;-87
2023/12/03 16:31:44;;;;;;;7.37;3.73;;;-0.70;99.90;;;-2.81;90.77;100893.56;10383987;28;96615;-96
2023/12/03 16:36:48;;;;;;;8.90;3.97;;;-0.60;99.90;;;-2.74;90.53;100909.75;10401930;28;96705;-88
2023/12/03 16:41:52;;;;;;;8.37;4.23;;;-0.60;99.90;;;-2.72;89.84;100900.13;10393929;28;96539;-91
2023/12/03 16:46:56;;;;;;;7.97;3.83;;;-0.50;99.90;;;-2.74;89.40;100902.81;10390777;28;96618;-91
2023/12/03 16:52:00;;;;;;;7.90;3.30;;;-0.50;99.90;;;-2.69;87.13;100915.63;10396413;28;96557;-95
2023/12/03 16:57:05;;;;;;;7.97;3.33;;;-0.50;99.90;;;-2.73;85.23;100901.03;10413436;28;97446;-96
2023/12/03 17:02:14;;;;;;;19.17;6.77;;;-0.50;99.90;;;-2.80;85.86;100907.44;10407705;28;97304;-90
2023/12/03 17:07:18;;;;;;;20.40;8.70;;;-0.60;99.90;;;-2.88;86.09;100919.88;10380375;28;96484;-89
2023/12/03 17:12:22;;;;;;;27.93;9.30;;;-0.70;99.90;;;-2.91;85.80;100912.22;10416661;28;96981;-89
2023/12/03 17:17:27;;;;;;;17.87;7.37;;;-0.80;99.90;;;-2.97;86.41;100911.56;10415068;28;96567;-88
2023/12/03 17:22:31;;;;;;;12.30;6.87;;;-0.80;99.90;;;-3.03;87.67;100917.03;10385200;28;97416;-87
2023/12/03 17:27:35;;;;;;;11.20;3.77;;;-0.80;99.90;;;-3.02;87.10;100912.69;10414942;28;96613;-87
2023/12/03 17:32:38;;;;;;;7.47;3.87;;;-0.90;99.90;;;-3.05;88.06;100913.66;10400401;28;96587;-95
2023/12/03 17:37:46;;;;;;;8.53;4.13;;;-0.90;99.90;;;-3.07;87.86;100915.47;10402731;28;96521;-96
2023/12/03 17:42:50;;;;;;;10.93;4.57;;;-0.90;99.90;;;-3.17;88.56;100915.94;10429911;22;99047;-88
2023/12/03 17:47:57;;;;;;;10.50;5.10;;;-0.90;99.90;;;-3.15;89.21;100922.75;10382822;27;96543;-88
2023/12/03 17:53:03;;;;;;;42.17;14.40;;;-1.00;99.90;;;-3.33;90.04;100887.94;10400344;28;96700;-88
2023/12/03 17:58:10;;;;;;;9.17;4.13;;;-1.00;99.90;;;-3.36;90.24;100895.00;10382872;28;96656;-87
2023/12/03 18:03:14;;;;;;;10.40;4.63;;;-1.10;99.90;;;-3.34;90.08;100903.63;10388206;27;96994;-87
2023/12/03 18:08:18;;;;;;;8.83;3.47;;;-1.10;99.90;;;-3.29;88.47;100910.31;10387427;27;97422;-88
2023/12/03 18:13:22;;;;;;;8.20;3.77;;;-1.10;99.90;;;-3.32;87.69;100914.78;10394111;28;96962;-87
2023/12/03 18:18:26;;;;;;;14.40;5.30;;;-1.10;99.90;;;-3.37;87.92;100920.16;10383273;27;96726;-88
2023/12/03 18:23:31;;;;;;;8.57;4.03;;;-1.20;99.90;;;-3.49;88.83;100920.66;10418541;27;96665;-87
2023/12/03 18:28:34;;;;;;;7.37;3.53;;;-1.20;99.90;;;-3.47;88.41;100929.25;10382184;28;96547;-86
2023/12/03 18:33:39;;;;;;;6.73;3.27;;;-1.30;99.90;;;-3.52;88.07;100913.84;10397175;27;97554;-86
2023/12/03 18:38:43;;;;;;;8.80;3.83;;;-1.30;99.90;;;-3.58;88.87;100924.47;10389954;27;98310;-86
2023/12/03 18:43:51;;;;;;;10.30;4.17;;;-1.30;99.90;;;-3.74;88.59;100894.81;10450006;27;96640;-86
2023/12/03 18:48:58;;;;;;;10.97;4.40;;;-1.40;99.90;;;-3.73;90.57;100914.66;10400512;27;97013;-85
2023/12/03 18:54:02;;;;;;;10.70;4.10;;;-1.50;99.90;;;-3.80;91.31;100908.03;10423245;27;96593;-86
2023/12/03 18:59:12;;;;;;;9.63;4.10;;;-1.50;99.90;;;-3.85;91.49;100925.53;10418309;27;96398;-86
2023/12/03 19:04:18;;;;;;;8.67;3.10;;;-1.60;99.90;;;-3.93;92.16;100925.84;10437639;27;96656;-86
2023/12/03 19:09:22;;;;;;;8.83;3.73;;;-1.60;99.90;;;-3.95;93.08;100926.81;10426288;27;98475;-87
2023/12/03 19:14:30;;;;;;;7.73;3.53;;;-1.60;99.90;;;-3.95;93.08;100935.44;10430467;27;96566;-87
2023/12/03 19:19:35;;;;;;;12.00;4.13;;;-1.70;99.90;;;-3.89;91.52;100947.34;10456687;27;96701;-86
2023/12/03 19:24:39;;;;;;;12.20;4.57;;;-1.60;99.90;;;-3.85;91.30;100951.50;10428782;27;96705;-86
2023/12/03 19:29:43;;;;;;;8.70;3.77;;;-1.60;99.90;;;-3.94;90.99;100942.31;10431270;27;96486;-86
2023/12/03 19:34:47;;;;;;;8.03;3.00;;;-1.60;99.90;;;-3.81;88.69;100959.13;10413236;27;98716;-86
2023/12/03 19:39:55;;;;;;;7.17;2.80;;;-1.60;99.90;;;-3.80;88.88;100963.41;10437384;27;97284;-86
2023/12/03 19:45:01;;;;;;;4.77;2.50;;;-1.60;99.90;;;-3.81;88.58;100974.69;10428008;27;96865;-87
2023/12/03 19:50:06;;;;;;;5.73;2.93;;;-1.60;99.90;;;-3.85;89.36;100964.47;10418819;27;96709;-86
2023/12/03 19:55:14;;;;;;;8.63;4.43;;;-1.60;99.90;;;-4.04;90.19;100959.13;10418921;27;98450;-87
2023/12/03 20:00:18;;;;;;;10.90;3.00;;;-1.70;99.90;;;-4.11;91.17;100961.09;10430775;27;96627;-87
2023/12/03 20:05:22;;;;;;;7.20;3.87;;;-1.80;99.90;;;-4.24;92.44;100962.47;10390189;27;97187;-87
2023/12/03 20:10:28;;;;;;;8.07;3.30;;;-1.90;99.90;;;-4.28;92.63;100971.25;10449075;27;97151;-88
2023/12/03 20:15:33;;;;;;;8.80;3.30;;;-2.00;99.90;;;-4.22;92.45;100980.56;10425381;27;96777;-87
2023/12/03 20:20:44;;;;;;;6.60;3.10;;;-1.90;99.90;;;-4.26;94.12;100997.97;10400736;27;98368;-87
2023/12/03 20:25:53;;;;;;;8.90;4.10;;;-2.00;99.90;;;-4.33;94.51;101007.75;10437064;27;98353;-87
2023/12/03 20:30:57;;;;;;;8.63;4.20;;;-2.00;99.90;;;-4.44;93.89;101003.81;10408480;27;96686;-87
2023/12/03 20:36:07;;;;;;;21.87;7.10;;;-2.10;99.90;;;-4.57;94.41;100999.06;10426192;27;96682;-87
2023/12/03 20:41:23;;;;;;;9.60;4.37;;;-2.30;99.90;;;-4.59;95.03;100995.69;10418846;27;96751;-87
2023/12/03 20:46:27;;;;;;;7.40;4.23;;;-2.30;99.90;;;-4.57;95.54;101009.44;10416020;27;98508;-87
2023/12/03 20:51:32;;;;;;;9.23;4.00;;;-2.30;99.90;;;-4.59;96.02;101007.81;10421569;27;96937;-87
2023/12/03 20:56:36;;;;;;;13.87;4.83;;;-2.30;99.90;;;-4.59;96.67;101013.84;10455982;27;98131;-87
2023/12/03 21:01:41;;;;;;;24.80;6.40;;;-2.30;99.90;;;-4.63;96.85;101021.75;10415004;27;98559;-86